メインページ
METAR-TAF:

METAR-TAF

空港 :

ポートオブスペイン, Trinidad, トリニダード・トバゴ

緯度: 10-37N, 経度: 061-21W, 海抜: 12m

現時点の気象観測

当レポートは36分前の03:00(UTC)に作成
無風
気温 26°C
湿度 89%
気圧 1015 hPa
視程10km以上
高度1600ftの雲は散在している

METAR: TTPP 260300Z 00000KT 9999 SCT016 26/24 Q1015 NOSIG

時間: 23:36 (03:36 UTC)

予報

当レポートは5時間36分前の22:00(UTC)に作成
予報は26日の 00時(UTC)から 26日の 24時(UTC)まで有効
の風 5kt
視程10km以上
高度1800ftの雲はほとんどない
26日の 12時(UTC)から 26日の 14時(UTC)まで徐々に
の風 15kt

TAF: TTPP 252200Z 2600/2624 09005KT 9999 FEW018 BECMG 2612/2614 09015KT

4,000以上の空港の気象観測と天気予報(METAR報とTAF報)

利用可能な観測所は地図上に黄色い丸と赤い丸で示す。

丸の上にカーソルを重ねると観測所名を参照できる。

次にクリックすると気象観測と天気予報を参照できる。

マップの切り替え:黒色「×」印の緑ボタンをクリックして拡大、「-」印の緑ボタンをクリックして縮小、緑色の三角印をクリックして隣りの地図に切り替え


METAR-TAF: